This is the latest recevied weather packets stored in our database for station/object WY1U-1. If no packets are shown the sender has not sent any weather packets the latest 1 day(s).
| Time | Temp. | Humidity | Pressure | Rain* | Wind** | Luminosity | Snow |
|---|---|---|---|---|---|---|---|
| 1836274363 | 17.78° C | 60% | 1019.9 hPa | 0 mm | 0 m/s | - | - |
| 1778047312 | 15.56° C | 82% | 1011 hPa | 0 mm | 0.89 m/s, 195° | - | - |
| 1778043711 | 16.11° C | 79% | 1011.2 hPa | 0 mm | 0.89 m/s, 198° | - | - |
| 1778040109 | 17.22° C | 74% | 1011.3 hPa | 0 mm | 0.89 m/s, 199° | - | - |
| 1778036510 | 17.78° C | 68% | 1011.2 hPa | 0 mm | 1.79 m/s, 200° | - | - |
| 1778032910 | 17.78° C | 68% | 1011 hPa | 0 mm | 1.79 m/s, 201° | - | - |
| 1778029310 | 18.33° C | 65% | 1010.3 hPa | 0 mm | 1.34 m/s, 203° | - | - |
| 1778027509 | 18.33° C | 63% | 1010 hPa | 0 mm | 2.68 m/s, 222° | - | - |
| 1778025710 | 18.89° C | 61% | 1009.6 hPa | 0 mm | 2.24 m/s, 219° | - | - |
| 1778022110 | 20.56° C | 58% | 1008.9 hPa | 0 mm | 1.79 m/s, 221° | - | - |
| 1778018510 | 21.11° C | 56% | 1008.9 hPa | 0 mm | 1.79 m/s, 210° | - | - |
| 1778014910 | 22.22° C | 53% | 1008.8 hPa | 0 mm | 2.24 m/s, 210° | - | - |
| 1778011310 | 22.78° C | 53% | 1009 hPa | 0 mm | 2.68 m/s, 213° | - | - |
| 1778007712 | 23.89° C | 50% | 1009.4 hPa | 0 mm | 2.24 m/s, 198° | - | - |
| 1778004111 | 23.89° C | 49% | 1009.5 hPa | 0 mm | 2.68 m/s, 204° | - | - |
| 1778000510 | 23.33° C | 52% | 1010 hPa | 0 mm | 2.24 m/s, 208° | - | - |
| 1777993311 | 20° C | 60% | 1011.7 hPa | 0 mm | 2.24 m/s, 207° | - | - |
| 1777982510 | 13.89° C | 86% | 1011.9 hPa | 0 mm | 1.34 m/s, 202° | - | - |
| 1777975311 | 11.11° C | 92% | 1010.8 hPa | 0 mm | 0 m/s | - | - |
| 1777971711 | 11.11° C | 91% | 1010.7 hPa | 0 mm | 0 m/s | - | - |
| 1777968110 | 11.67° C | 88% | 1010.8 hPa | 0 mm | 0 m/s | - | - |
| 1777964510 | 11.67° C | 86% | 1011 hPa | 0 mm | 0 m/s | - | - |
* Rain latest hour (hover to see other rain measurements)
** Current wind speed in m/s (hover to see current wind gust speed)